Prospect Creek, Prospect Cree, AK

4:48 AM AKDT on October 21, 2014 (GMT -0800)
Bettles | Change Station
CLOSE
Current Station
Airport
Location: Bettles,
Elevation: 643 ft
Nearby Weather Stations

Elev 643 ft 66.91 °N, 151.53 °W | Updated 55 minutes ago

Overcast
Overcast
30 °F
Feels Like 23 °F
N
7
Wind Variable Wind from NE

Today
High -- | Low -- °F
--% Chance of Precip.
Yesterday
High -- | Low -- °F
Precip. -- in
9:23 AM 6:08 PM
Waning Crescent, 6% visible
Pressure 29.51 in
Visibility 10.0 miles
Clouds Mostly Cloudy 5000 ft
Overcast 6500 ft
Windchill 23 °F
Dew Point 20 °F
Humidity 66%
Rainfall 0.00 in
Snow Depth 1 in
UV 0 out of 12
Pollen Not available.
Air Quality Not available.
Flu Activity Sporadic
METAR PABT 211153Z 05006KT 10SM BKN050 OVC065 M01/M07 A2947 RMK AO2 SLP993 4/002 T10111067 10006 21017 53012

More Conditions Fewer Conditions

Pressure 29.51 in
Visibility 10.0 miles
Clouds Mostly Cloudy 5000 ft
Overcast 6500 ft
Windchill 23 °F
Dew Point 20 °F
Humidity 66%
Rainfall 0.00 in
Snow Depth 1 in
UV 0 out of 12
Pollen Not available.
Air Quality Not available.
Flu Activity Sporadic
METAR PABT 211153Z 05006KT 10SM BKN050 OVC065 M01/M07 A2947 RMK AO2 SLP993 4/002 T10111067 10006 21017 53012

More Conditions Fewer Conditions

10-Day Weather Forecast

Almanac

Astronomy

Oct. 21, 2014 Rise Set
Actual Time 9:23 AM AKDT 6:08 PM AKDT
Civil Twilight 8:27 AM AKDT 7:04 PM AKDT
Nautical Twilight 7:26 AM AKDT 8:06 PM AKDT
Astronomical Twilight 6:24 AM AKDT 9:07 PM AKDT
Moon 6:27 AM AKDT 5:48 PM AKDT
Length of Visible Light 10h 37m
Length of Day
8h 45m
Tomorrow will be 7m 31s shorter.
Waning Crescent, 6% of the Moon is Illuminated
Today
Waning Crescent
Oct 23
New
Oct 30
First Quarter
Nov 6
Full
Nov 14
Last Quarter

Today's Extremes

State Highs State Lows

Community

WunderPhotos

Upload Photos

1,763,649 photos uploaded!

Nearby

Snow Depth

Station Depth Elevation
Gobblers Knob 1 in 2030 ft
Coldfoot 4 in 1040 ft
Atigun Pass 13 in 4800 ft
Imnaviat Creek 21 in 3050 ft
Fort Yukon 3 in 430 ft

Earthquake Activity

City Distance Mag. Time & Date
No recent earthquake activity has been reported nearby.
Minimum magnitude displayed is 2.5.

Coastal Water Temperatures

Place Temperature
No Stations Reporting

Nearby Weather Stations